createdAt,value
2018-03-15T00:01:25.500Z,23.10
2018-03-15T00:03:52.999Z,24.60
2018-03-15T00:06:21.230Z,25.20
2018-03-15T00:08:48.723Z,23.40
2018-03-15T00:11:16.199Z,22.17
2018-03-15T00:13:44.441Z,23.83
2018-03-15T00:16:11.899Z,24.00
2018-03-15T00:18:39.420Z,24.80
2018-03-15T00:21:06.878Z,23.77
2018-03-15T00:23:34.346Z,24.70
2018-03-15T00:26:01.822Z,22.90
2018-03-15T00:28:29.287Z,24.10
2018-03-15T00:30:56.850Z,22.83
2018-03-15T00:33:25.095Z,24.60
2018-03-15T00:35:52.560Z,24.70
2018-03-15T00:38:20.014Z,26.20
2018-03-15T00:40:48.328Z,24.13
2018-03-15T00:43:16.636Z,23.10
2018-03-15T00:45:44.922Z,24.50
2018-03-15T00:48:12.416Z,23.60
2018-03-15T00:50:39.875Z,25.27
2018-03-15T00:53:07.332Z,24.10
2018-03-15T00:55:34.807Z,24.90
2018-03-15T00:58:03.035Z,23.93
2018-03-15T01:00:30.499Z,22.77
2018-03-15T01:02:57.958Z,23.60
2018-03-15T01:05:25.423Z,24.07
2018-03-15T01:07:52.889Z,25.90
2018-03-15T01:10:20.354Z,23.50
2018-03-15T01:12:47.812Z,22.57
2018-03-15T01:15:15.272Z,24.27
2018-03-15T01:17:42.739Z,22.83
2018-03-15T01:20:10.971Z,23.43
2018-03-15T01:22:38.441Z,22.00
2018-03-15T01:25:05.931Z,23.57
2018-03-15T01:27:34.163Z,23.80
2018-03-15T01:30:01.637Z,23.00
2018-03-15T01:32:29.110Z,22.23
2018-03-15T01:34:57.342Z,22.40
2018-03-15T01:37:24.805Z,23.30
2018-03-15T01:39:52.283Z,22.10
2018-03-15T01:42:19.757Z,23.00
2018-03-15T01:44:47.211Z,24.03
2018-03-15T01:47:14.687Z,22.37
2018-03-15T01:49:43.916Z,22.53
2018-03-15T01:52:11.406Z,23.97
2018-03-15T01:54:38.874Z,24.93
2018-03-15T01:57:06.344Z,23.77
2018-03-15T01:59:34.566Z,22.23
2018-03-15T02:02:02.035Z,22.83
2018-03-15T02:04:29.506Z,22.90
2018-03-15T02:06:56.971Z,23.27
2018-03-15T02:09:24.446Z,22.20
2018-03-15T02:11:52.679Z,23.33
2018-03-15T02:14:22.642Z,23.53
2018-03-15T02:16:51.022Z,22.17
2018-03-15T02:19:19.247Z,21.27
2018-03-15T02:21:46.728Z,22.80
2018-03-15T02:24:14.190Z,22.00
2018-03-15T02:26:41.668Z,22.57
2018-03-15T02:29:09.905Z,23.53
2018-03-15T02:31:37.389Z,20.73
2018-03-15T02:34:04.852Z,22.97
2018-03-15T02:36:33.095Z,21.60
2018-03-15T02:39:00.562Z,22.10
2018-03-15T02:41:28.026Z,23.20
2018-03-15T02:43:55.479Z,23.57
2018-03-15T02:46:22.950Z,22.47
2018-03-15T02:48:51.197Z,21.70
2018-03-15T02:51:18.673Z,22.87
2018-03-15T02:53:46.142Z,24.03
2018-03-15T02:56:14.387Z,22.80
2018-03-15T02:58:41.864Z,22.10
2018-03-15T03:01:09.351Z,20.00
2018-03-15T03:03:37.559Z,22.90
2018-03-15T03:06:05.042Z,20.67
2018-03-15T03:08:32.576Z,22.17
2018-03-15T03:11:00.043Z,21.00
2018-03-15T03:13:27.508Z,22.13
2018-03-15T03:15:54.996Z,23.03
2018-03-15T03:18:25.989Z,21.13
2018-03-15T03:20:53.450Z,21.37
2018-03-15T03:23:20.915Z,22.30
2018-03-15T03:25:48.382Z,19.27
2018-03-15T03:28:15.857Z,19.40
2018-03-15T03:30:44.103Z,23.20
2018-03-15T03:33:11.575Z,23.60
2018-03-15T03:35:39.043Z,20.90
2018-03-15T03:38:07.358Z,22.43
2018-03-15T03:40:34.814Z,21.10
2018-03-15T03:43:02.318Z,19.80
2018-03-15T03:45:29.795Z,21.53
2018-03-15T03:47:58.039Z,20.93
2018-03-15T03:50:25.515Z,20.87
2018-03-15T03:52:53.005Z,21.47
2018-03-15T03:55:20.470Z,21.30
2018-03-15T03:57:47.926Z,20.23
2018-03-15T04:00:15.410Z,22.00
2018-03-15T04:02:42.874Z,20.30
2018-03-15T04:05:10.355Z,20.10
2018-03-15T04:07:37.839Z,19.80
2018-03-15T04:10:06.089Z,19.47
2018-03-15T04:12:34.086Z,19.53
2018-03-15T04:15:01.594Z,21.53
2018-03-15T04:17:29.065Z,20.20
2018-03-15T04:19:56.631Z,19.93
2018-03-15T04:22:24.105Z,20.50
2018-03-15T04:24:52.338Z,20.33
2018-03-15T04:27:19.806Z,19.57
2018-03-15T04:29:47.291Z,20.67
2018-03-15T04:32:15.521Z,19.60
2018-03-15T04:34:42.998Z,19.13
2018-03-15T04:37:11.251Z,18.97
2018-03-15T04:39:38.724Z,20.60
2018-03-15T04:42:06.206Z,19.73
2018-03-15T04:44:34.963Z,19.93
2018-03-15T04:47:02.455Z,21.07
2018-03-15T04:49:30.708Z,18.97
2018-03-15T04:51:58.179Z,20.60
2018-03-15T04:54:25.660Z,20.50
2018-03-15T04:56:53.131Z,19.33
2018-03-15T04:59:20.620Z,20.27
2018-03-15T05:01:48.121Z,21.57
2018-03-15T05:04:15.623Z,19.67
2018-03-15T05:06:43.091Z,18.93
2018-03-15T05:09:11.223Z,20.63
2018-03-15T05:11:38.707Z,19.40
2018-03-15T05:14:06.174Z,19.47
2018-03-15T05:16:34.124Z,19.97
2018-03-15T05:19:01.600Z,19.47
2018-03-15T05:21:29.079Z,19.47
2018-03-15T05:23:56.563Z,19.70
2018-03-15T05:26:24.794Z,17.80
2018-03-15T05:28:52.285Z,18.70
2018-03-15T05:33:54.513Z,19.17
2018-03-15T05:36:21.984Z,20.33
2018-03-15T05:38:49.455Z,19.33
2018-03-15T05:41:16.934Z,20.53
2018-03-15T05:43:44.394Z,19.57
2018-03-15T05:46:12.641Z,19.57
2018-03-15T05:48:40.120Z,19.83
2018-03-15T05:51:07.588Z,18.07
2018-03-15T05:53:35.042Z,18.80
2018-03-15T05:56:03.371Z,18.50
2018-03-15T05:58:30.904Z,18.23
2018-03-15T06:00:58.375Z,19.40
2018-03-15T06:03:25.926Z,18.83
2018-03-15T06:05:53.384Z,19.47
2018-03-15T06:08:20.865Z,20.17
2018-03-15T06:10:48.345Z,19.07
2018-03-15T06:13:15.822Z,18.60
2018-03-15T06:15:44.078Z,18.90
2018-03-15T06:18:11.544Z,17.53
2018-03-15T06:20:39.004Z,18.03
2018-03-15T06:23:06.476Z,18.10
2018-03-15T06:25:34.725Z,20.63
2018-03-15T06:28:02.967Z,19.97
2018-03-15T06:30:30.466Z,19.10
2018-03-15T06:32:58.791Z,19.60
2018-03-15T06:35:26.259Z,18.53
2018-03-15T06:37:53.751Z,18.60
2018-03-15T06:40:21.239Z,17.70
2018-03-15T06:42:48.719Z,19.17
2018-03-15T06:45:16.208Z,18.60
2018-03-15T06:47:43.734Z,18.63
2018-03-15T06:50:12.095Z,18.00
2018-03-15T06:52:39.575Z,17.30
2018-03-15T06:55:07.058Z,18.83
2018-03-15T06:57:34.562Z,17.87
2018-03-15T07:00:02.044Z,17.83
2018-03-15T07:02:32.368Z,17.80
2018-03-15T07:05:00.887Z,16.90
2018-03-15T07:07:29.859Z,17.63
2018-03-15T07:09:57.346Z,18.40
2018-03-15T07:12:24.821Z,18.13
2018-03-15T07:14:53.063Z,16.60
2018-03-15T07:17:20.547Z,18.00
2018-03-15T07:19:49.782Z,18.10
2018-03-15T07:22:17.259Z,17.20
2018-03-15T07:24:45.015Z,16.93
2018-03-15T07:27:12.687Z,17.10
2018-03-15T07:29:40.906Z,15.80
2018-03-15T07:32:09.216Z,17.13
2018-03-15T07:34:36.691Z,17.17
2018-03-15T07:37:04.152Z,17.97
2018-03-15T07:39:31.623Z,17.67
2018-03-15T07:42:00.314Z,16.20
2018-03-15T07:44:27.888Z,16.73
2018-03-15T07:46:55.366Z,15.37
2018-03-15T07:49:23.602Z,16.03
2018-03-15T07:51:51.072Z,16.77
2018-03-15T07:54:18.534Z,16.13
2018-03-15T07:56:46.763Z,17.00
2018-03-15T07:59:14.234Z,15.93
2018-03-15T08:01:41.712Z,16.37
2018-03-15T08:04:09.191Z,15.80
2018-03-15T08:06:37.443Z,15.23
2018-03-15T08:09:04.912Z,16.90
2018-03-15T08:11:34.005Z,15.73
2018-03-15T08:14:01.663Z,14.70
2018-03-15T08:16:29.127Z,14.60
2018-03-15T08:18:56.601Z,14.40
2018-03-15T08:21:24.842Z,15.73
2018-03-15T08:23:52.326Z,15.47
2018-03-15T08:26:20.548Z,14.07
2018-03-15T08:28:48.028Z,14.13
2018-03-15T08:31:15.492Z,15.30
2018-03-15T08:33:42.961Z,15.10
2018-03-15T08:36:10.434Z,15.60
2018-03-15T08:38:42.127Z,13.30
2018-03-15T08:41:13.265Z,14.40
2018-03-15T08:43:40.836Z,14.73
2018-03-15T08:46:08.295Z,16.60
2018-03-15T08:48:35.770Z,14.40
2018-03-15T08:51:03.236Z,15.00
2018-03-15T08:53:30.791Z,15.40
2018-03-15T08:55:58.294Z,16.83
2018-03-15T08:58:25.762Z,14.07
2018-03-15T09:00:53.253Z,14.33
2018-03-15T09:03:20.723Z,14.70
2018-03-15T09:05:48.404Z,15.00
2018-03-15T09:08:15.751Z,14.80
2018-03-15T09:10:43.987Z,14.77
2018-03-15T09:13:11.680Z,14.87
2018-03-15T09:15:39.134Z,15.83
2018-03-15T09:18:06.609Z,16.33
2018-03-15T09:20:34.844Z,16.40
2018-03-15T09:23:02.308Z,15.63
2018-03-15T09:25:29.790Z,14.90
2018-03-15T09:27:58.010Z,15.23
2018-03-15T09:30:25.482Z,16.00
2018-03-15T09:32:52.971Z,14.90
2018-03-15T09:35:20.435Z,14.97
2018-03-15T09:37:48.679Z,15.07
2018-03-15T09:40:16.791Z,14.30
2018-03-15T09:42:45.051Z,15.20
2018-03-15T09:45:13.327Z,15.73
2018-03-15T09:47:41.575Z,14.97
2018-03-15T09:50:09.047Z,15.17
2018-03-15T09:52:36.531Z,14.97
2018-03-15T09:55:04.787Z,15.47
2018-03-15T09:57:32.346Z,15.00
2018-03-15T09:59:59.812Z,16.20
2018-03-15T10:02:28.062Z,14.33
2018-03-15T10:04:55.531Z,14.00
2018-03-15T10:07:23.007Z,15.40
2018-03-15T10:09:51.243Z,15.23
2018-03-15T10:12:18.731Z,13.70
2018-03-15T10:14:46.991Z,14.70
2018-03-15T10:17:14.467Z,15.10
2018-03-15T10:19:42.720Z,14.43
2018-03-15T10:22:10.233Z,15.73
2018-03-15T10:24:37.675Z,15.23
2018-03-15T10:27:05.153Z,16.03
2018-03-15T10:29:32.667Z,16.30
2018-03-15T10:32:00.918Z,14.33
2018-03-15T10:34:28.422Z,14.07
2018-03-15T10:36:55.912Z,13.67
2018-03-15T10:39:24.315Z,13.60
2018-03-15T10:41:51.787Z,14.70
2018-03-15T10:44:19.259Z,14.70
2018-03-15T10:46:47.504Z,15.20
2018-03-15T10:49:14.992Z,13.73
2018-03-15T10:51:43.251Z,13.20
2018-03-15T10:54:10.785Z,16.00
2018-03-15T10:56:38.276Z,15.10
2018-03-15T10:59:07.551Z,15.20
2018-03-15T11:01:40.776Z,15.60
2018-03-15T11:04:11.780Z,14.33
2018-03-15T11:06:51.206Z,13.03
2018-03-15T11:09:22.287Z,14.17
2018-03-15T11:11:51.162Z,14.67
2018-03-15T11:14:18.644Z,15.67
2018-03-15T11:16:46.884Z,14.53
2018-03-15T11:19:14.368Z,14.23
2018-03-15T11:21:42.624Z,14.67
2018-03-15T11:24:10.341Z,14.60
2018-03-15T11:26:37.831Z,13.90
2018-03-15T11:29:05.311Z,14.40
2018-03-15T11:31:32.778Z,14.73
2018-03-15T11:34:01.022Z,15.10
2018-03-15T11:36:29.161Z,14.57
2018-03-15T11:38:56.671Z,14.40
2018-03-15T11:41:24.151Z,14.60
2018-03-15T11:43:51.623Z,14.97
2018-03-15T11:46:19.095Z,14.30
2018-03-15T11:48:46.645Z,14.47
2018-03-15T11:51:14.135Z,13.40
2018-03-15T11:53:41.612Z,14.60
2018-03-15T11:56:09.136Z,13.33
2018-03-15T11:58:37.336Z,13.63
2018-03-15T12:01:04.824Z,14.50
2018-03-15T12:03:33.280Z,13.43
2018-03-15T12:06:00.747Z,13.80
2018-03-15T12:08:28.986Z,13.07
2018-03-15T12:10:56.471Z,13.30
2018-03-15T12:13:23.945Z,14.03
2018-03-15T12:15:52.195Z,14.17
2018-03-15T12:18:20.488Z,13.97
2018-03-15T12:20:47.956Z,13.07
2018-03-15T12:23:16.208Z,14.30
2018-03-15T12:25:44.496Z,15.00
2018-03-15T12:28:11.966Z,15.47
2018-03-15T12:30:40.222Z,16.10
2018-03-15T12:33:07.716Z,15.70
2018-03-15T12:35:35.957Z,15.07
2018-03-15T12:38:03.443Z,14.10
2018-03-15T12:40:31.687Z,14.07
2018-03-15T12:42:59.159Z,13.53
2018-03-15T12:45:27.403Z,12.60
2018-03-15T12:47:54.884Z,14.90
2018-03-15T12:50:22.373Z,15.00
2018-03-15T12:52:49.900Z,14.40
2018-03-15T12:55:17.372Z,14.20
2018-03-15T12:57:45.610Z,14.63
2018-03-15T13:00:13.093Z,15.50
2018-03-15T13:02:41.343Z,14.73
2018-03-15T13:05:08.835Z,13.90
2018-03-15T13:07:37.133Z,15.37
2018-03-15T13:10:04.632Z,13.80
2018-03-15T13:12:32.101Z,13.80
2018-03-15T13:14:59.566Z,16.13
2018-03-15T13:17:27.041Z,14.30
2018-03-15T13:19:55.278Z,14.70
2018-03-15T13:22:22.759Z,15.07
2018-03-15T13:24:51.043Z,13.60
2018-03-15T13:27:19.268Z,14.43
2018-03-15T13:29:46.744Z,15.77
2018-03-15T13:32:14.224Z,14.47
2018-03-15T13:34:42.451Z,13.47
2018-03-15T13:37:09.935Z,16.03
2018-03-15T13:39:37.411Z,13.17
2018-03-15T13:42:05.661Z,13.37
2018-03-15T13:44:33.124Z,14.07
2018-03-15T13:47:00.607Z,14.30
2018-03-15T13:49:28.854Z,14.43
2018-03-15T13:51:56.362Z,15.13
2018-03-15T13:54:23.814Z,14.83
2018-03-15T13:56:52.042Z,15.50
2018-03-15T13:59:19.523Z,13.67
2018-03-15T14:01:47.780Z,14.03
2018-03-15T14:04:15.247Z,14.47
2018-03-15T14:06:42.733Z,12.60
2018-03-15T14:09:10.221Z,13.67
2018-03-15T14:11:37.690Z,14.90
2018-03-15T14:14:05.175Z,12.93
2018-03-15T14:16:32.721Z,13.03
2018-03-15T14:19:00.259Z,14.27
2018-03-15T14:21:27.938Z,12.90
2018-03-15T14:23:56.281Z,14.87
2018-03-15T14:26:23.896Z,13.60
2018-03-15T14:28:52.203Z,13.97
2018-03-15T14:31:19.678Z,13.80
2018-03-15T14:33:47.258Z,12.93
2018-03-15T14:36:14.826Z,15.90
2018-03-15T14:38:42.464Z,13.60
2018-03-15T14:41:10.052Z,14.87
2018-03-15T14:43:37.624Z,15.07
2018-03-15T14:46:06.868Z,14.40
2018-03-15T14:48:34.411Z,13.90
2018-03-15T14:51:02.294Z,14.30
2018-03-15T14:53:29.911Z,14.37
2018-03-15T14:55:58.367Z,13.43
2018-03-15T14:58:26.700Z,13.70
2018-03-15T15:00:54.352Z,14.33
2018-03-15T15:03:22.168Z,13.33
2018-03-15T15:05:49.815Z,14.53
2018-03-15T15:08:17.567Z,15.13
2018-03-15T15:10:45.725Z,15.77
2018-03-15T15:13:13.456Z,15.77
2018-03-15T15:15:42.254Z,15.47
2018-03-15T15:18:10.144Z,15.23
2018-03-15T15:20:38.364Z,15.93
2018-03-15T15:23:06.949Z,14.90
2018-03-15T15:25:35.509Z,16.90
2018-03-15T15:28:04.069Z,16.30
2018-03-15T15:30:31.875Z,16.90
2018-03-15T15:33:00.385Z,16.50
2018-03-15T15:35:28.157Z,14.97
2018-03-15T15:37:55.977Z,16.80
2018-03-15T15:40:25.064Z,16.73
2018-03-15T15:42:53.518Z,15.70
2018-03-15T15:45:21.293Z,14.60
2018-03-15T15:47:49.032Z,16.53
2018-03-15T15:50:16.794Z,16.10
2018-03-15T15:52:44.484Z,15.67
2018-03-15T15:55:12.086Z,15.73
2018-03-15T15:57:39.599Z,19.03
2018-03-15T16:00:07.243Z,16.30
2018-03-15T16:02:34.723Z,16.00
2018-03-15T16:05:02.186Z,16.13
2018-03-15T16:07:29.677Z,16.80
2018-03-15T16:09:57.137Z,16.83
2018-03-15T16:12:24.619Z,15.93
2018-03-15T16:14:52.134Z,15.80
2018-03-15T16:17:19.599Z,14.93
2018-03-15T16:19:47.064Z,16.70
2018-03-15T16:22:14.559Z,18.20
2018-03-15T16:24:42.034Z,16.97
2018-03-15T16:27:09.507Z,16.73
2018-03-15T16:29:37.114Z,17.17
2018-03-15T16:32:05.355Z,17.60
2018-03-15T16:34:32.847Z,15.67
2018-03-15T16:37:01.132Z,16.73
2018-03-15T16:39:29.367Z,15.63
2018-03-15T16:41:56.883Z,16.03
2018-03-15T16:44:24.354Z,17.00
2018-03-15T16:46:51.830Z,17.47
2018-03-15T16:49:19.290Z,16.93
2018-03-15T16:51:48.260Z,17.60
2018-03-15T16:54:15.726Z,19.07
2018-03-15T16:56:43.207Z,15.93
2018-03-15T16:59:10.680Z,18.50
2018-03-15T17:01:38.975Z,16.37
2018-03-15T17:04:06.444Z,16.63
2018-03-15T17:06:33.955Z,18.20
2018-03-15T17:09:01.445Z,17.43
2018-03-15T17:11:29.671Z,17.73
2018-03-15T17:13:57.136Z,17.20
2018-03-15T17:16:24.692Z,17.10
2018-03-15T17:18:52.176Z,16.83
2018-03-15T17:21:20.420Z,17.70
2018-03-15T17:23:48.261Z,17.17
2018-03-15T17:26:16.410Z,17.40
2018-03-15T17:28:45.816Z,19.30
2018-03-15T17:31:13.322Z,22.20
2018-03-15T17:33:40.793Z,21.47
2018-03-15T17:36:08.290Z,21.00
2018-03-15T17:38:35.770Z,18.77
2018-03-15T17:41:03.268Z,20.27
2018-03-15T17:43:30.748Z,17.37
2018-03-15T17:45:58.966Z,16.73
2018-03-15T17:48:26.459Z,18.60
2018-03-15T17:50:53.959Z,19.07
2018-03-15T17:53:21.451Z,17.73
2018-03-15T17:55:49.285Z,17.40
2018-03-15T17:58:16.780Z,17.00
2018-03-15T18:00:44.248Z,16.87
2018-03-15T18:03:11.735Z,17.80
2018-03-15T18:05:39.996Z,16.87
2018-03-15T18:08:08.256Z,18.60
2018-03-15T18:10:35.758Z,18.70
2018-03-15T18:13:03.242Z,18.03
2018-03-15T18:15:30.702Z,18.47
2018-03-15T18:17:58.183Z,18.70
2018-03-15T18:20:25.684Z,16.93
2018-03-15T18:22:53.140Z,16.93
2018-03-15T18:25:20.683Z,15.30
2018-03-15T18:27:48.917Z,15.50
2018-03-15T18:30:16.382Z,18.80
2018-03-15T18:32:43.960Z,15.43
2018-03-15T18:35:12.211Z,14.87
2018-03-15T18:37:40.571Z,17.00
2018-03-15T18:40:08.115Z,18.77
2018-03-15T18:42:35.603Z,13.87
2018-03-15T18:45:03.054Z,15.87
2018-03-15T18:47:30.585Z,13.37
2018-03-15T18:49:58.776Z,13.70
2018-03-15T18:52:26.238Z,14.70
2018-03-15T18:54:53.736Z,11.20
2018-03-15T18:57:21.973Z,11.80
2018-03-15T18:59:49.454Z,10.67
2018-03-15T19:02:16.968Z,10.10
2018-03-15T19:04:44.425Z,11.03
2018-03-15T19:07:11.923Z,9.83
2018-03-15T19:09:39.450Z,9.30
2018-03-15T19:12:07.682Z,9.13
2018-03-15T19:14:35.956Z,10.37
2018-03-15T19:17:04.187Z,10.10
2018-03-15T19:19:31.655Z,10.80
2018-03-15T19:21:59.172Z,10.17
2018-03-15T19:24:26.637Z,10.50
2018-03-15T19:26:54.096Z,10.93
2018-03-15T19:29:21.592Z,10.03
2018-03-15T19:31:49.864Z,12.63
2018-03-15T19:34:17.329Z,12.47
2018-03-15T19:36:44.828Z,12.97
2018-03-15T19:39:12.288Z,11.43
2018-03-15T19:41:39.752Z,13.00
2018-03-15T19:44:07.240Z,11.90
2018-03-15T19:46:34.728Z,12.60
2018-03-15T19:49:02.967Z,14.60
2018-03-15T19:51:31.944Z,13.20
2018-03-15T19:53:59.443Z,13.80
2018-03-15T19:56:26.912Z,14.40
2018-03-15T19:58:55.150Z,13.10
2018-03-15T20:01:22.647Z,14.67
2018-03-15T20:03:50.912Z,12.93
2018-03-15T20:06:19.156Z,15.63
2018-03-15T20:08:46.642Z,14.43
2018-03-15T20:11:14.142Z,15.40
2018-03-15T20:13:41.613Z,15.37
2018-03-15T20:16:09.122Z,14.60
2018-03-15T20:18:37.358Z,16.13
2018-03-15T20:21:05.607Z,14.90
2018-03-15T20:23:38.815Z,17.33
2018-03-15T20:26:07.072Z,16.13
2018-03-15T20:28:40.131Z,16.40
2018-03-15T20:31:08.374Z,15.20
2018-03-15T20:33:41.595Z,18.13
2018-03-15T20:36:09.839Z,17.27
2018-03-15T20:38:37.307Z,16.63
2018-03-15T20:41:10.527Z,17.60
2018-03-15T20:43:38.867Z,17.30
2018-03-15T20:46:11.976Z,18.60
2018-03-15T20:48:45.791Z,18.67
2018-03-15T20:51:14.039Z,21.27
2018-03-15T20:53:41.499Z,23.60
2018-03-15T20:56:08.971Z,20.43
2018-03-15T20:58:36.455Z,21.33
2018-03-15T21:01:03.941Z,24.03
2018-03-15T21:03:31.403Z,25.07
2018-03-15T21:05:58.905Z,23.93
2018-03-15T21:08:27.126Z,24.57
2018-03-15T21:10:54.584Z,25.13
2018-03-15T21:13:22.085Z,23.03
2018-03-15T21:15:49.571Z,24.20
2018-03-15T21:18:17.048Z,24.30
2018-03-15T21:20:45.359Z,23.10
2018-03-15T21:23:12.896Z,22.97
2018-03-15T21:25:40.369Z,22.70
2018-03-15T21:28:07.841Z,22.10
2018-03-15T21:30:35.306Z,21.57
2018-03-15T21:33:02.779Z,21.63
2018-03-15T21:35:31.044Z,21.47
2018-03-15T21:37:59.290Z,21.23
2018-03-15T21:40:27.542Z,21.97
2018-03-15T21:42:55.029Z,20.90
2018-03-15T21:45:22.503Z,23.60
2018-03-15T21:47:51.025Z,22.60
2018-03-15T21:50:18.518Z,23.67
2018-03-15T21:52:46.883Z,26.10
2018-03-15T21:55:18.202Z,22.80
2018-03-15T21:57:45.811Z,28.80
2018-03-15T22:00:13.372Z,24.60
2018-03-15T22:05:15.668Z,27.37
2018-03-15T22:07:43.154Z,28.07
2018-03-15T22:10:10.650Z,33.17
2018-03-15T22:12:38.115Z,32.47
2018-03-15T22:15:06.220Z,34.20
2018-03-15T22:17:33.691Z,32.00
2018-03-15T22:20:01.920Z,34.53
2018-03-15T22:22:29.407Z,36.70
2018-03-15T22:24:56.867Z,35.73
2018-03-15T22:27:25.095Z,34.00
2018-03-15T22:29:52.570Z,33.43
2018-03-15T22:32:20.039Z,36.23
2018-03-15T22:34:49.012Z,35.90
2018-03-15T22:37:16.491Z,38.40
2018-03-15T22:39:43.966Z,34.83
2018-03-15T22:42:12.203Z,37.20
2018-03-15T22:44:39.695Z,33.63
2018-03-15T22:47:07.940Z,33.90
2018-03-15T22:49:35.428Z,34.53
2018-03-15T22:52:02.890Z,36.63
2018-03-15T22:54:31.149Z,37.57
2018-03-15T22:56:58.707Z,33.30
2018-03-15T22:59:26.182Z,35.10
2018-03-15T23:01:54.415Z,33.13
2018-03-15T23:04:21.875Z,34.80
2018-03-15T23:06:49.396Z,36.77
2018-03-15T23:09:16.886Z,34.90
2018-03-15T23:11:44.860Z,33.17
2018-03-15T23:14:12.339Z,36.93
2018-03-15T23:16:40.615Z,37.53
2018-03-15T23:19:08.082Z,35.53
2018-03-15T23:21:36.346Z,35.63
2018-03-15T23:24:05.587Z,36.47
2018-03-15T23:26:33.178Z,32.23
2018-03-15T23:29:01.376Z,35.17
2018-03-15T23:31:28.834Z,32.07
2018-03-15T23:33:56.304Z,33.83
2018-03-15T23:36:24.582Z,35.13
2018-03-15T23:38:52.854Z,32.37
2018-03-15T23:41:21.110Z,33.27
2018-03-15T23:43:48.598Z,32.80
2018-03-15T23:46:16.832Z,35.70
2018-03-15T23:48:45.459Z,36.67
2018-03-15T23:51:12.931Z,33.10
2018-03-15T23:53:40.408Z,37.63
2018-03-15T23:56:07.878Z,34.70
2018-03-15T23:58:35.380Z,38.70
